createdAt,value
2022-12-05T00:00:32.111Z,2.49
2022-12-05T00:02:58.456Z,2.45
2022-12-05T00:05:24.787Z,2.46
2022-12-05T00:07:51.199Z,2.48
2022-12-05T00:10:17.664Z,2.49
2022-12-05T00:12:45.312Z,2.47
2022-12-05T00:15:11.791Z,2.48
2022-12-05T00:17:38.595Z,2.50
2022-12-05T00:20:05.563Z,2.48
2022-12-05T00:22:31.888Z,2.49
2022-12-05T00:24:58.149Z,2.52
2022-12-05T00:27:24.466Z,2.50
2022-12-05T00:29:52.191Z,2.53
2022-12-05T00:32:18.573Z,2.50
2022-12-05T00:34:44.948Z,2.50
2022-12-05T00:37:11.236Z,2.48
2022-12-05T00:39:37.552Z,2.45
2022-12-05T00:42:03.863Z,2.47
2022-12-05T00:44:30.167Z,2.45
2022-12-05T00:46:57.852Z,2.47
2022-12-05T00:49:24.165Z,2.46
2022-12-05T00:51:50.504Z,2.48
2022-12-05T00:54:16.821Z,2.48
2022-12-05T00:56:43.402Z,2.49
2022-12-05T00:59:12.727Z,2.46
2022-12-05T01:01:39.701Z,2.50
2022-12-05T01:04:10.252Z,2.49
2022-12-05T01:06:36.812Z,2.46
2022-12-05T01:09:04.449Z,2.44
2022-12-05T01:11:31.696Z,2.43
2022-12-05T01:13:59.421Z,2.43
2022-12-05T01:16:27.043Z,2.45
2022-12-05T01:18:53.812Z,2.46
2022-12-05T01:21:21.599Z,2.46
2022-12-05T01:23:48.162Z,2.47
2022-12-05T01:26:15.521Z,2.48
2022-12-05T01:28:41.992Z,2.49
2022-12-05T01:31:10.233Z,2.49
2022-12-05T01:33:36.600Z,2.49
2022-12-05T01:36:03.611Z,2.54
2022-12-05T01:38:31.349Z,2.54
2022-12-05T01:41:01.937Z,2.54
2022-12-05T01:43:28.564Z,2.55
2022-12-05T01:45:54.972Z,2.55
2022-12-05T01:48:23.744Z,2.55
2022-12-05T01:50:50.446Z,2.60
2022-12-05T01:53:17.481Z,2.62
2022-12-05T01:55:45.788Z,2.58
2022-12-05T01:58:12.106Z,2.59
2022-12-05T02:00:39.628Z,2.57
2022-12-05T02:03:07.676Z,2.59
2022-12-05T02:05:35.329Z,2.58
2022-12-05T02:08:02.653Z,2.59
2022-12-05T02:10:30.707Z,2.61
2022-12-05T02:12:59.757Z,2.63
2022-12-05T02:15:33.851Z,2.65
2022-12-05T02:18:07.394Z,2.65
2022-12-05T02:20:38.567Z,2.60
2022-12-05T02:23:26.171Z,2.63
2022-12-05T02:26:19.684Z,2.63
2022-12-05T02:29:01.676Z,2.63
2022-12-05T02:31:32.792Z,2.62
2022-12-05T02:34:02.358Z,2.58
2022-12-05T02:36:32.717Z,2.61
2022-12-05T02:39:02.216Z,2.63
2022-12-05T02:41:32.740Z,2.59
2022-12-05T02:44:01.601Z,2.64
2022-12-05T02:46:30.576Z,2.62
2022-12-05T02:48:58.731Z,2.62
2022-12-05T02:51:28.982Z,2.65
2022-12-05T02:53:58.227Z,2.64
2022-12-05T02:56:25.568Z,2.63
2022-12-05T02:58:53.331Z,2.65
2022-12-05T03:01:19.869Z,2.66
2022-12-05T03:03:47.887Z,2.64
2022-12-05T03:06:17.811Z,2.65
2022-12-05T03:08:47.250Z,2.63
2022-12-05T03:11:13.652Z,2.65
2022-12-05T03:13:41.726Z,2.65
2022-12-05T03:16:11.532Z,2.66
2022-12-05T03:18:40.057Z,2.67
2022-12-05T03:21:14.631Z,2.68
2022-12-05T03:23:44.467Z,2.66
2022-12-05T03:26:16.415Z,2.69
2022-12-05T03:28:49.277Z,2.71
2022-12-05T03:31:20.077Z,2.71
2022-12-05T03:33:48.736Z,2.71
2022-12-05T03:36:19.400Z,2.68
2022-12-05T03:38:49.219Z,2.70
2022-12-05T03:41:20.530Z,2.70
2022-12-05T03:43:50.678Z,2.71
2022-12-05T03:46:22.565Z,2.71
2022-12-05T03:48:53.047Z,2.72
2022-12-05T03:51:22.205Z,2.73
2022-12-05T03:53:51.351Z,2.71
2022-12-05T03:56:20.238Z,2.72
2022-12-05T03:58:49.311Z,2.71
2022-12-05T04:01:17.694Z,2.74
2022-12-05T04:03:46.486Z,2.78
2022-12-05T04:06:17.228Z,2.75
2022-12-05T04:08:47.568Z,2.74
2022-12-05T04:11:15.679Z,2.74
2022-12-05T04:13:43.889Z,2.74
2022-12-05T04:16:12.849Z,2.73
2022-12-05T04:18:42.647Z,2.75
2022-12-05T04:21:10.222Z,2.75
2022-12-05T04:23:36.586Z,2.77
2022-12-05T04:26:12.282Z,2.75
2022-12-05T04:28:45.316Z,2.76
2022-12-05T04:31:15.147Z,2.74
2022-12-05T04:33:42.986Z,2.76
2022-12-05T04:36:12.716Z,2.75
2022-12-05T04:38:41.933Z,2.76
2022-12-05T04:41:13.014Z,2.77
2022-12-05T04:43:40.750Z,2.76
2022-12-05T04:46:08.805Z,2.74
2022-12-05T04:48:37.414Z,2.76
2022-12-05T04:51:04.488Z,2.78
2022-12-05T04:53:31.157Z,2.81
2022-12-05T04:55:59.198Z,2.80
2022-12-05T04:58:27.758Z,2.80
2022-12-05T05:00:56.361Z,2.78
2022-12-05T05:03:24.854Z,2.79
2022-12-05T05:05:52.993Z,2.80
2022-12-05T05:08:20.567Z,2.79
2022-12-05T05:10:51.618Z,2.79
2022-12-05T05:13:17.903Z,2.82
2022-12-05T05:15:45.593Z,2.82
2022-12-05T05:18:11.967Z,2.82
2022-12-05T05:20:38.678Z,2.79
2022-12-05T05:23:05.025Z,2.83
2022-12-05T05:25:31.335Z,2.81
2022-12-05T05:27:57.642Z,2.80
2022-12-05T05:30:24.868Z,2.75
2022-12-05T05:32:52.858Z,2.73
2022-12-05T05:35:19.528Z,2.74
2022-12-05T05:37:46.139Z,2.73
2022-12-05T05:40:13.648Z,2.72
2022-12-05T05:42:42.296Z,2.72
2022-12-05T05:45:09.357Z,2.73
2022-12-05T05:47:35.660Z,2.75
2022-12-05T05:50:03.831Z,2.73
2022-12-05T05:52:32.170Z,2.74
2022-12-05T05:54:58.483Z,2.73
2022-12-05T05:57:24.804Z,2.73
2022-12-05T05:59:51.291Z,2.72
2022-12-05T06:02:17.715Z,2.76
2022-12-05T06:04:44.211Z,2.75
2022-12-05T06:07:11.890Z,2.76
2022-12-05T06:09:38.407Z,2.76
2022-12-05T06:12:05.076Z,2.75
2022-12-05T06:14:31.367Z,2.77
2022-12-05T06:16:57.705Z,2.76
2022-12-05T06:19:24.058Z,2.77
2022-12-05T06:21:50.435Z,2.77
2022-12-05T06:24:18.096Z,2.78
2022-12-05T06:26:44.381Z,2.78
2022-12-05T06:29:10.659Z,2.80
2022-12-05T06:31:36.991Z,2.80
2022-12-05T06:34:03.968Z,2.79
2022-12-05T06:36:30.791Z,2.79
2022-12-05T06:38:57.101Z,2.79
2022-12-05T06:41:24.964Z,2.79
2022-12-05T06:43:52.018Z,2.80
2022-12-05T06:46:18.402Z,2.81
2022-12-05T06:48:44.770Z,2.80
2022-12-05T06:51:11.624Z,2.79
2022-12-05T06:53:38.159Z,2.77
2022-12-05T06:56:05.615Z,2.79
2022-12-05T06:58:33.429Z,2.79
2022-12-05T07:00:59.802Z,2.82
2022-12-05T07:03:26.131Z,2.82
2022-12-05T07:05:52.442Z,2.81
2022-12-05T07:08:18.818Z,2.81
2022-12-05T07:10:50.497Z,2.80
2022-12-05T07:13:16.897Z,2.83
2022-12-05T07:15:45.689Z,2.83
2022-12-05T07:18:12.070Z,2.81
2022-12-05T07:21:04.007Z,2.81
2022-12-05T07:23:24.618Z,2.81
2022-12-05T07:25:50.952Z,2.81
2022-12-05T07:28:17.283Z,2.83
2022-12-05T07:30:44.952Z,2.85
2022-12-05T07:33:11.295Z,2.86
2022-12-05T07:35:37.596Z,2.86
2022-12-05T07:38:03.908Z,2.85
2022-12-05T07:40:30.198Z,2.85
2022-12-05T07:42:56.496Z,2.86
2022-12-05T07:45:22.812Z,2.86
2022-12-05T07:47:50.571Z,2.86
2022-12-05T07:50:16.997Z,2.88
2022-12-05T07:52:43.315Z,2.89
2022-12-05T07:55:09.896Z,2.86
2022-12-05T07:57:36.244Z,2.87
2022-12-05T08:00:03.530Z,2.90
2022-12-05T08:02:29.986Z,2.89
2022-12-05T08:04:57.652Z,2.90
2022-12-05T08:07:23.940Z,2.92
2022-12-05T08:09:50.238Z,2.93
2022-12-05T08:12:16.531Z,2.92
2022-12-05T08:14:42.814Z,2.95
2022-12-05T08:17:09.174Z,2.95
2022-12-05T08:19:35.594Z,2.97
2022-12-05T08:22:03.240Z,2.96
2022-12-05T08:24:29.515Z,2.95
2022-12-05T08:26:55.861Z,2.95
2022-12-05T08:29:22.370Z,2.94
2022-12-05T08:31:49.647Z,2.96
2022-12-05T08:34:16.784Z,2.96
2022-12-05T08:36:43.333Z,2.97
2022-12-05T08:39:13.067Z,2.99
2022-12-05T08:41:39.748Z,2.97
2022-12-05T08:44:06.571Z,2.98
2022-12-05T08:46:33.791Z,2.99
2022-12-05T08:49:00.128Z,3.00
2022-12-05T08:51:26.443Z,3.00
2022-12-05T08:53:52.719Z,3.00
2022-12-05T08:56:24.970Z,3.00
2022-12-05T08:58:53.071Z,3.02
2022-12-05T09:01:20.556Z,3.03
2022-12-05T09:03:48.302Z,3.02
2022-12-05T09:06:15.491Z,3.03
2022-12-05T09:08:42.494Z,3.02
2022-12-05T09:11:09.670Z,3.04
2022-12-05T09:13:37.384Z,3.03
2022-12-05T09:16:07.046Z,3.03
2022-12-05T09:18:33.411Z,3.05
2022-12-05T09:21:04.650Z,3.05
2022-12-05T09:23:30.976Z,3.05
2022-12-05T09:25:57.281Z,3.03
2022-12-05T09:28:23.729Z,3.02
2022-12-05T09:30:56.956Z,3.03
2022-12-05T09:33:23.336Z,3.04
2022-12-05T09:35:49.651Z,3.06
2022-12-05T09:38:15.929Z,3.08
2022-12-05T09:40:42.250Z,3.09
2022-12-05T09:43:15.667Z,3.08
2022-12-05T09:45:47.089Z,3.12
2022-12-05T09:48:16.071Z,3.12
2022-12-05T09:50:45.260Z,3.13
2022-12-05T09:53:16.691Z,3.14
2022-12-05T09:55:48.227Z,3.15
2022-12-05T09:58:20.932Z,3.15
2022-12-05T10:00:47.767Z,3.18
2022-12-05T10:03:21.750Z,3.20
2022-12-05T10:05:52.775Z,3.20
2022-12-05T10:08:21.644Z,3.21
2022-12-05T10:10:54.842Z,3.22
2022-12-05T10:13:24.800Z,3.24
2022-12-05T10:15:56.977Z,3.22
2022-12-05T10:18:33.766Z,3.23
2022-12-05T10:21:02.473Z,3.24
2022-12-05T10:26:17.427Z,3.28
2022-12-05T10:28:49.485Z,3.31
2022-12-05T10:31:18.616Z,3.31
2022-12-05T10:33:48.999Z,3.31
2022-12-05T10:36:15.509Z,3.32
2022-12-05T10:38:42.821Z,3.34
2022-12-05T10:41:10.359Z,3.35
2022-12-05T10:43:37.289Z,3.34
2022-12-05T10:46:05.621Z,3.34
2022-12-05T10:48:35.245Z,3.34
2022-12-05T10:51:03.640Z,3.31
2022-12-05T10:53:37.913Z,3.31
2022-12-05T10:56:31.512Z,3.31
2022-12-05T10:58:58.415Z,3.32
2022-12-05T11:01:26.538Z,3.30
2022-12-05T11:03:55.983Z,3.32
2022-12-05T11:06:25.338Z,3.32
2022-12-05T11:09:07.746Z,3.31
2022-12-05T11:11:34.381Z,3.29
2022-12-05T11:14:02.208Z,3.31
2022-12-05T11:16:29.729Z,3.27
2022-12-05T11:18:56.157Z,3.23
2022-12-05T11:21:23.862Z,3.22
2022-12-05T11:23:50.204Z,3.21
2022-12-05T11:26:17.977Z,3.24
2022-12-05T11:28:44.360Z,3.26
2022-12-05T11:31:20.707Z,3.28
2022-12-05T11:34:02.135Z,3.28
2022-12-05T11:36:35.635Z,3.27
2022-12-05T11:39:01.943Z,3.29
2022-12-05T11:41:38.171Z,3.32
2022-12-05T11:44:13.628Z,3.29
2022-12-05T11:46:48.352Z,3.27
2022-12-05T11:49:24.659Z,3.29
2022-12-05T11:51:58.095Z,3.32
2022-12-05T11:55:03.511Z,3.32
2022-12-05T11:57:25.939Z,3.35
2022-12-05T12:00:07.032Z,3.36
2022-12-05T12:02:41.067Z,3.37
2022-12-05T12:05:12.816Z,3.40
2022-12-05T12:07:48.763Z,3.39
2022-12-05T12:10:21.070Z,3.38
2022-12-05T12:12:53.771Z,3.40
2022-12-05T12:15:30.175Z,3.38
2022-12-05T12:17:59.952Z,3.40
2022-12-05T12:20:32.413Z,3.37
2022-12-05T12:23:12.414Z,3.38
2022-12-05T12:25:43.002Z,3.42
2022-12-05T12:28:20.311Z,3.45
2022-12-05T12:30:54.500Z,3.46
2022-12-05T12:33:27.734Z,3.45
2022-12-05T12:35:56.862Z,3.45
2022-12-05T12:38:36.003Z,3.45
2022-12-05T12:41:06.515Z,3.43
2022-12-05T12:43:57.071Z,3.40
2022-12-05T12:46:30.151Z,3.36
2022-12-05T12:49:09.792Z,3.34
2022-12-05T12:51:42.556Z,3.34
2022-12-05T12:54:40.451Z,3.31
2022-12-05T12:57:18.130Z,3.35
2022-12-05T12:59:53.111Z,3.27
2022-12-05T13:02:24.062Z,3.31
2022-12-05T13:04:52.894Z,3.31
2022-12-05T13:07:23.188Z,3.36
2022-12-05T13:09:54.394Z,3.37
2022-12-05T13:12:23.330Z,3.33
2022-12-05T13:14:52.471Z,3.33
2022-12-05T13:17:20.584Z,3.42
2022-12-05T13:19:48.324Z,3.42
2022-12-05T13:22:16.827Z,3.32
2022-12-05T13:24:43.163Z,3.31
2022-12-05T13:27:15.853Z,3.31
2022-12-05T13:29:43.085Z,3.31
2022-12-05T13:32:24.732Z,3.23
2022-12-05T13:34:51.508Z,3.17
2022-12-05T13:37:22.322Z,3.18
2022-12-05T13:39:50.909Z,3.13
2022-12-05T13:42:24.017Z,3.12
2022-12-05T13:44:52.565Z,3.14
2022-12-05T13:47:26.332Z,3.14
2022-12-05T13:49:55.028Z,3.17
2022-12-05T13:52:23.346Z,3.21
2022-12-05T13:54:53.947Z,3.24
2022-12-05T13:57:35.127Z,3.23
2022-12-05T14:00:04.852Z,3.22
2022-12-05T14:02:51.561Z,3.19
2022-12-05T14:05:36.352Z,3.22
2022-12-05T14:08:30.622Z,3.25
2022-12-05T14:11:07.659Z,3.27
2022-12-05T14:13:41.304Z,3.25
2022-12-05T14:16:26.305Z,3.23
2022-12-05T14:18:58.272Z,3.27
2022-12-05T14:21:34.137Z,3.27
2022-12-05T14:24:04.313Z,3.30
2022-12-05T14:26:40.919Z,3.29
2022-12-05T14:29:22.759Z,3.29
2022-12-05T14:32:03.952Z,3.30
2022-12-05T14:34:33.584Z,3.31
2022-12-05T14:37:01.659Z,3.32
2022-12-05T14:39:31.707Z,3.32
2022-12-05T14:41:59.408Z,3.33
2022-12-05T14:44:25.846Z,3.33
2022-12-05T14:46:52.154Z,3.33
2022-12-05T14:49:38.176Z,3.32
2022-12-05T14:52:09.924Z,3.34
2022-12-05T14:54:37.444Z,3.38
2022-12-05T14:57:09.832Z,3.38
2022-12-05T14:59:43.363Z,3.40
2022-12-05T15:02:16.086Z,3.41
2022-12-05T15:04:46.568Z,3.40
2022-12-05T15:07:16.569Z,3.40
2022-12-05T15:09:46.695Z,3.40
2022-12-05T15:12:15.241Z,3.39
2022-12-05T15:14:44.158Z,3.36
2022-12-05T15:17:14.701Z,3.34
2022-12-05T15:19:47.090Z,3.32
2022-12-05T15:22:14.477Z,3.32
2022-12-05T15:24:40.793Z,3.32
2022-12-05T15:27:09.810Z,3.32
2022-12-05T15:29:36.937Z,3.30
2022-12-05T15:32:04.342Z,3.31
2022-12-05T15:34:32.761Z,3.29
2022-12-05T15:37:04.358Z,3.32
2022-12-05T15:39:49.298Z,3.33
2022-12-05T15:42:16.039Z,3.35
2022-12-05T15:44:42.479Z,3.33
2022-12-05T15:47:19.042Z,3.32
2022-12-05T15:49:45.748Z,3.30
2022-12-05T15:52:18.699Z,3.26
2022-12-05T15:54:45.711Z,3.26
2022-12-05T15:57:16.161Z,3.25
2022-12-05T15:59:43.762Z,3.29
2022-12-05T16:02:14.575Z,3.32
2022-12-05T16:04:44.080Z,3.36
2022-12-05T16:07:11.646Z,3.36
2022-12-05T16:09:41.137Z,3.37
2022-12-05T16:12:17.020Z,3.39
2022-12-05T16:15:00.275Z,3.38
2022-12-05T16:17:28.787Z,3.39
2022-12-05T16:20:09.348Z,3.40
2022-12-05T16:22:35.683Z,3.39
2022-12-05T16:25:13.548Z,3.41
2022-12-05T16:27:39.865Z,3.41
2022-12-05T16:30:07.555Z,3.41
2022-12-05T16:32:34.719Z,3.42
2022-12-05T16:35:01.091Z,3.43
2022-12-05T16:37:28.408Z,3.43
2022-12-05T16:39:55.079Z,3.44
2022-12-05T16:42:24.650Z,3.43
2022-12-05T16:44:55.545Z,3.43
2022-12-05T16:47:22.959Z,3.43
2022-12-05T16:49:49.374Z,3.41
2022-12-05T16:52:16.071Z,3.40
2022-12-05T16:54:42.598Z,3.42
2022-12-05T16:57:11.939Z,3.41
2022-12-05T16:59:40.785Z,3.41
2022-12-05T17:02:10.199Z,3.41
2022-12-05T17:04:36.621Z,3.40
2022-12-05T17:07:03.019Z,3.40
2022-12-05T17:09:29.391Z,3.40
2022-12-05T17:12:01.220Z,3.39
2022-12-05T17:14:27.584Z,3.40
2022-12-05T17:16:55.259Z,3.41
2022-12-05T17:19:21.565Z,3.42
2022-12-05T17:21:47.864Z,3.43
2022-12-05T17:24:15.300Z,3.43
2022-12-05T17:26:41.709Z,3.43
2022-12-05T17:29:08.106Z,3.42
2022-12-05T17:31:34.453Z,3.44
2022-12-05T17:34:02.393Z,3.44
2022-12-05T17:36:28.683Z,3.42
2022-12-05T17:38:55.133Z,3.43
2022-12-05T17:41:22.116Z,3.43
2022-12-05T17:43:48.473Z,3.43
2022-12-05T17:46:16.033Z,3.42
2022-12-05T17:48:42.365Z,3.44
2022-12-05T17:51:10.304Z,3.46
2022-12-05T17:53:37.063Z,3.46
2022-12-05T17:56:03.481Z,3.46
2022-12-05T17:58:29.793Z,3.45
2022-12-05T18:00:56.167Z,3.47
2022-12-05T18:03:22.620Z,3.46
2022-12-05T18:05:49.008Z,3.46
2022-12-05T18:08:16.788Z,3.46
2022-12-05T18:10:43.933Z,3.47
2022-12-05T18:13:10.539Z,3.48
2022-12-05T18:15:42.487Z,3.48
2022-12-05T18:18:13.343Z,3.49
2022-12-05T18:20:39.684Z,3.48
2022-12-05T18:23:06.016Z,3.48
2022-12-05T18:25:33.681Z,3.50
2022-12-05T18:27:59.997Z,3.50
2022-12-05T18:30:26.364Z,3.51
2022-12-05T18:32:52.635Z,3.53
2022-12-05T18:35:18.954Z,3.54
2022-12-05T18:37:45.302Z,3.54
2022-12-05T18:40:12.086Z,3.55
2022-12-05T18:42:39.841Z,3.57
2022-12-05T18:45:06.811Z,3.57
2022-12-05T18:47:33.214Z,3.57
2022-12-05T18:49:59.556Z,3.59
2022-12-05T18:52:26.058Z,3.59
2022-12-05T18:55:09.259Z,3.58
2022-12-05T18:57:40.250Z,3.58
2022-12-05T19:00:07.758Z,3.60
2022-12-05T19:02:34.179Z,3.60
2022-12-05T19:05:02.356Z,3.61
2022-12-05T19:07:28.658Z,3.62
2022-12-05T19:09:54.984Z,3.61
2022-12-05T19:12:21.299Z,3.60
2022-12-05T19:14:48.962Z,3.62
2022-12-05T19:17:15.308Z,3.64
2022-12-05T19:19:41.614Z,3.65
2022-12-05T19:22:07.913Z,3.66
2022-12-05T19:24:34.189Z,3.68
2022-12-05T19:27:00.486Z,3.67
2022-12-05T19:29:26.795Z,3.68
2022-12-05T19:31:54.499Z,3.69
2022-12-05T19:34:21.035Z,3.71
2022-12-05T19:36:47.308Z,3.69
2022-12-05T19:39:15.479Z,3.67
2022-12-05T19:41:41.835Z,3.66
2022-12-05T19:44:08.216Z,3.70
2022-12-05T19:46:35.144Z,3.70
2022-12-05T19:49:04.079Z,3.69
2022-12-05T19:51:30.766Z,3.67
2022-12-05T19:53:58.207Z,3.67
2022-12-05T19:56:25.217Z,3.66
2022-12-05T19:58:52.812Z,3.68
2022-12-05T20:01:20.207Z,3.70
2022-12-05T20:03:47.286Z,3.71
2022-12-05T20:06:15.540Z,3.70
2022-12-05T20:08:42.125Z,3.71
2022-12-05T20:11:09.228Z,3.71
2022-12-05T20:13:46.511Z,3.74
2022-12-05T20:16:14.671Z,3.72
2022-12-05T20:18:41.356Z,3.71
2022-12-05T20:21:09.111Z,3.70
2022-12-05T20:23:36.949Z,3.70
2022-12-05T20:26:04.545Z,3.70
2022-12-05T20:28:30.874Z,3.71
2022-12-05T20:31:02.857Z,3.72
2022-12-05T20:33:29.233Z,3.72
2022-12-05T20:35:58.342Z,3.72
2022-12-05T20:38:24.674Z,3.75
2022-12-05T20:40:52.340Z,3.76
2022-12-05T20:43:18.655Z,3.77
2022-12-05T20:45:45.176Z,3.76
2022-12-05T20:48:11.532Z,3.75
2022-12-05T20:50:37.840Z,3.77
2022-12-05T20:53:04.151Z,3.77
2022-12-05T20:55:30.452Z,3.76
2022-12-05T20:58:01.228Z,3.80
2022-12-05T21:00:31.213Z,3.80
2022-12-05T21:02:57.574Z,3.80
2022-12-05T21:05:23.903Z,3.82
2022-12-05T21:07:50.246Z,3.83
2022-12-05T21:10:16.678Z,3.82
2022-12-05T21:12:42.983Z,3.82
2022-12-05T21:15:11.073Z,3.84
2022-12-05T21:17:37.370Z,3.83
2022-12-05T21:20:04.497Z,3.86
2022-12-05T21:22:30.852Z,3.87
2022-12-05T21:24:57.203Z,3.88
2022-12-05T21:27:23.521Z,3.89
2022-12-05T21:29:49.808Z,3.91
2022-12-05T21:32:17.529Z,3.91
2022-12-05T21:34:43.887Z,3.92
2022-12-05T21:37:10.205Z,3.93
2022-12-05T21:39:36.484Z,3.95
2022-12-05T21:42:02.754Z,3.96
2022-12-05T21:44:29.024Z,3.96
2022-12-05T21:46:55.490Z,3.97
2022-12-05T21:49:23.122Z,4.01
2022-12-05T21:51:49.442Z,3.99
2022-12-05T21:54:15.726Z,4.01
2022-12-05T21:56:42.030Z,4.02
2022-12-05T21:59:08.339Z,4.04
2022-12-05T22:01:34.742Z,4.04
2022-12-05T22:04:01.130Z,4.06
2022-12-05T22:06:29.328Z,4.07
2022-12-05T22:08:55.710Z,4.07
2022-12-05T22:11:22.908Z,4.09
2022-12-05T22:13:49.412Z,4.09
2022-12-05T22:16:16.188Z,4.10
2022-12-05T22:18:42.614Z,4.11
2022-12-05T22:21:11.084Z,4.10
2022-12-05T22:23:38.935Z,4.11
2022-12-05T22:26:06.614Z,4.14
2022-12-05T22:28:33.231Z,4.20
2022-12-05T22:31:00.379Z,4.24
2022-12-05T22:33:27.549Z,4.27
2022-12-05T22:35:54.815Z,4.30
2022-12-05T22:38:21.132Z,4.34
2022-12-05T22:40:53.780Z,4.38
2022-12-05T22:43:20.091Z,4.41
2022-12-05T22:45:46.367Z,4.41
2022-12-05T22:48:12.640Z,4.37
2022-12-05T22:50:39.153Z,4.35
2022-12-05T22:53:05.438Z,4.37
2022-12-05T22:55:31.970Z,4.38
2022-12-05T22:57:59.739Z,4.41
2022-12-05T23:00:26.073Z,4.42
2022-12-05T23:02:52.460Z,4.43
2022-12-05T23:05:18.869Z,4.43
2022-12-05T23:07:45.243Z,4.45
2022-12-05T23:10:11.657Z,4.49
2022-12-05T23:12:37.971Z,4.49
2022-12-05T23:15:06.376Z,4.51
2022-12-05T23:17:32.899Z,4.52
2022-12-05T23:19:59.475Z,4.54
2022-12-05T23:22:26.077Z,4.54
2022-12-05T23:24:52.493Z,4.51
2022-12-05T23:27:18.867Z,4.52
2022-12-05T23:29:45.231Z,4.53
2022-12-05T23:32:13.044Z,4.51
2022-12-05T23:34:39.364Z,4.54
2022-12-05T23:37:05.685Z,4.52
2022-12-05T23:39:32.008Z,4.56
2022-12-05T23:41:58.385Z,4.55
2022-12-05T23:44:24.725Z,4.58
2022-12-05T23:46:51.121Z,4.57
2022-12-05T23:49:18.894Z,4.61
2022-12-05T23:51:45.272Z,4.65
2022-12-05T23:54:11.643Z,4.66
2022-12-05T23:56:38.506Z,4.66
2022-12-05T23:59:05.707Z,4.67
